X  Cerrar Datos meteorológicos de aviación METAR        LEAL ELCHE/ALTET
Temperatura
29°C Temperatura
18°C Punto de rocío
51% Humedad



Viento
22 KM/H
14 MPH
6 M/S
12 NUDO



70°
ENE
Condiciones actuales

Mostly Sunny Mayormente soleado
Presión 1017 (hPa) - 30.03 (inHg)
Visibilidad 30 (milla) - 48 (km)
Aeropuerto
Código de aeropuerto LEAL

localidad: ELCHE/ALTET
Distancia: 14 (km)

Metar:
METAR LEAL 011100Z 07012KT 9999 FEW040 29/18 Q1017 NOSIG

Hora: 01-07-2022 13:00 CEST